Time;durP1;ratioP1;P1;durP2;ratioP2;P2;SDS_P1;SDS_P2;PMS_P1;PMS_P2;Temp;Humidity;BMP_temperature;BMP_pressure;BME280_temperature;BME280_humidity;BME280_pressure;Samples;Min_cycle;Max_cycle;Signal;HPM_P1;HPM_P2
2022/07/03 00:01:58;;;;;;;21.60;9.40;;;22.30;99.90;;;22.84;66.96;95393.50;5058119;28;20488;-55
2022/07/03 00:04:25;;;;;;;15.37;9.97;;;22.30;99.90;;;22.80;66.93;95389.56;5060153;28;20447;-54
2022/07/03 00:06:53;;;;;;;12.90;9.57;;;22.30;99.90;;;22.78;67.83;95390.81;5059026;28;20499;-56
2022/07/03 00:09:22;;;;;;;18.23;9.80;;;22.30;99.90;;;22.72;67.19;95398.63;5062097;28;20462;-54
2022/07/03 00:11:49;;;;;;;11.07;9.00;;;22.20;99.90;;;22.69;67.29;95392.84;5055995;28;20501;-55
2022/07/03 00:14:17;;;;;;;11.90;8.90;;;22.20;99.90;;;22.66;67.36;95385.19;5057486;28;20451;-55
2022/07/03 00:16:44;;;;;;;14.23;8.60;;;22.10;99.90;;;22.62;67.85;95386.63;5058068;28;20478;-52
2022/07/03 00:19:12;;;;;;;22.47;9.40;;;22.10;99.90;;;22.60;67.52;95386.00;5056002;28;20454;-55
2022/07/03 00:21:45;;;;;;;10.77;8.60;;;22.00;99.90;;;22.55;67.43;95384.75;5058661;28;20479;-54
2022/07/03 00:24:20;;;;;;;12.70;8.87;;;22.00;99.90;;;22.52;68.00;95382.47;5058509;28;20452;-53
2022/07/03 00:26:51;;;;;;;11.27;9.67;;;22.00;99.90;;;22.49;67.68;95382.06;5058140;28;21072;-53
2022/07/03 00:29:19;;;;;;;10.13;8.47;;;22.00;99.90;;;22.46;67.56;95383.28;5056986;28;20459;-55
2022/07/03 00:31:46;;;;;;;14.50;9.70;;;21.90;99.90;;;22.44;67.57;95374.63;5059997;28;20499;-54
2022/07/03 00:34:13;;;;;;;12.50;9.17;;;21.90;99.90;;;22.43;67.91;95374.81;5057462;28;20454;-54
2022/07/03 00:36:41;;;;;;;14.67;9.07;;;21.90;99.90;;;22.40;68.08;95376.03;5058828;28;20471;-52
2022/07/03 00:39:08;;;;;;;13.27;8.97;;;21.90;99.90;;;22.38;67.61;95372.75;5058089;28;20463;-56
2022/07/03 00:41:36;;;;;;;19.53;9.77;;;21.80;99.90;;;22.35;67.80;95373.16;5064165;28;20482;-56
2022/07/03 00:44:05;;;;;;;15.23;8.47;;;21.80;99.90;;;22.33;68.12;95370.66;5061273;28;20475;-55
2022/07/03 00:46:32;;;;;;;19.60;9.27;;;21.80;99.90;;;22.29;68.08;95377.44;5059456;28;20468;-56
2022/07/03 00:49:00;;;;;;;9.27;8.47;;;21.80;99.90;;;22.27;68.30;95376.78;5061332;28;20854;-53
2022/07/03 00:51:28;;;;;;;12.13;9.00;;;21.80;99.90;;;22.25;67.87;95375.38;5063755;28;20505;-53
2022/07/03 00:53:57;;;;;;;8.80;7.77;;;21.70;99.90;;;22.22;68.38;95373.91;5061521;28;20452;-55
2022/07/03 00:56:26;;;;;;;15.03;8.77;;;21.70;99.90;;;22.20;68.39;95365.25;5063390;28;20486;-56
2022/07/03 00:58:54;;;;;;;12.67;7.73;;;21.70;99.90;;;22.18;68.65;95357.41;5058785;28;20450;-55
2022/07/03 01:01:24;;;;;;;12.93;8.40;;;21.70;99.90;;;22.16;67.97;95353.25;5064592;28;21030;-55
2022/07/03 01:04:04;;;;;;;11.53;8.90;;;21.60;99.90;;;22.14;68.58;95344.59;5059125;28;20445;-54
2022/07/03 01:06:35;;;;;;;13.90;8.50;;;21.60;99.90;;;22.12;68.63;95347.50;5060831;28;20526;-53
2022/07/03 01:09:04;;;;;;;11.17;8.43;;;21.60;99.90;;;22.11;68.80;95340.47;5064493;28;20435;-53
2022/07/03 01:11:35;;;;;;;14.10;8.87;;;21.60;99.90;;;22.10;68.48;95338.81;5061017;28;20503;-54
2022/07/03 01:14:16;;;;;;;19.53;9.30;;;21.60;99.90;;;22.09;68.75;95347.88;5063316;28;20466;-55
2022/07/03 01:16:53;;;;;;;9.07;7.70;;;21.60;99.90;;;22.09;68.52;95341.69;5060369;28;20458;-56
2022/07/03 01:19:36;;;;;;;11.17;9.07;;;21.60;99.90;;;22.07;68.95;95339.19;5054382;28;20461;-55
2022/07/03 01:22:19;;;;;;;10.60;8.30;;;21.60;99.90;;;22.06;68.80;95347.44;5060155;28;20593;-54
2022/07/03 01:25:04;;;;;;;10.93;8.30;;;21.50;99.90;;;22.03;69.10;95341.47;5060174;28;20443;-54
2022/07/03 01:27:36;;;;;;;9.03;8.13;;;21.50;99.90;;;22.03;68.70;95337.97;5060045;28;20533;-54
2022/07/03 01:30:06;;;;;;;14.57;8.77;;;21.50;99.90;;;22.02;69.03;95339.00;5060482;28;20486;-54
2022/07/03 01:32:38;;;;;;;10.87;9.10;;;21.50;99.90;;;22.00;68.94;95343.72;5060627;28;20851;-53
2022/07/03 01:35:07;;;;;;;13.57;9.70;;;21.50;99.90;;;22.00;69.42;95349.09;5063085;28;20470;-53
2022/07/03 01:37:36;;;;;;;10.37;9.33;;;21.50;99.90;;;21.99;69.24;95348.22;5060855;28;20909;-57
2022/07/03 01:40:05;;;;;;;12.93;9.27;;;21.50;99.90;;;21.99;69.15;95355.47;5061889;28;20900;-53
2022/07/03 01:42:34;;;;;;;13.53;9.77;;;21.50;99.90;;;21.98;69.27;95351.97;5059859;28;20440;-56
2022/07/03 01:45:02;;;;;;;10.37;8.33;;;21.50;99.90;;;21.98;69.13;95349.28;5063067;28;20471;-55
2022/07/03 01:47:29;;;;;;;12.90;8.77;;;21.50;99.90;;;21.99;68.92;95347.41;5054366;28;20454;-54
2022/07/03 01:49:56;;;;;;;14.23;10.00;;;21.50;99.90;;;21.99;69.23;95342.06;5062379;28;20952;-54
2022/07/03 01:52:25;;;;;;;10.70;8.70;;;21.50;99.90;;;21.99;69.29;95350.09;5059888;28;20873;-53
2022/07/03 01:54:52;;;;;;;10.53;9.47;;;21.50;99.90;;;21.99;69.10;95355.47;5061832;28;20485;-55
2022/07/03 01:57:19;;;;;;;12.03;9.00;;;21.50;99.90;;;21.98;69.14;95346.59;5059252;28;20447;-56
2022/07/03 01:59:48;;;;;;;9.73;8.83;;;21.50;99.90;;;21.98;69.28;95345.75;5061353;28;20454;-54
2022/07/03 02:02:19;;;;;;;10.80;8.87;;;21.50;99.90;;;21.96;68.71;95353.19;5062873;28;20485;-55
2022/07/03 02:04:55;;;;;;;10.43;8.90;;;21.40;99.90;;;21.95;68.88;95341.66;5059538;28;20448;-54
2022/07/03 02:07:27;;;;;;;10.00;8.97;;;21.40;99.90;;;21.92;69.13;95350.06;5062976;28;20455;-54
2022/07/03 02:10:00;;;;;;;16.40;9.77;;;21.40;99.90;;;21.91;69.29;95356.44;5061210;28;20443;-53
2022/07/03 02:12:34;;;;;;;13.43;10.00;;;21.40;99.90;;;21.88;68.95;95345.31;5061774;28;20478;-56
2022/07/03 02:15:06;;;;;;;10.20;9.20;;;21.40;99.90;;;21.88;68.95;95353.34;5060209;28;20628;-55
2022/07/03 02:17:38;;;;;;;9.13;8.33;;;21.40;99.90;;;21.87;69.17;95349.00;5055007;28;20444;-56
2022/07/03 02:20:08;;;;;;;12.63;8.20;;;21.40;99.90;;;21.83;69.23;95349.41;5057640;28;20474;-54
2022/07/03 02:22:36;;;;;;;14.43;9.23;;;21.30;99.90;;;21.84;69.58;95345.72;5060697;28;20447;-55
2022/07/03 02:25:06;;;;;;;11.13;9.67;;;21.30;99.90;;;21.83;69.14;95344.06;5061135;28;20482;-54
2022/07/03 02:27:42;;;;;;;9.33;8.53;;;21.30;99.90;;;21.82;69.41;95347.75;5057964;28;20675;-54
2022/07/03 02:30:12;;;;;;;9.50;8.70;;;21.30;99.90;;;21.81;69.43;95351.47;5059382;28;20548;-54
2022/07/03 02:32:44;;;;;;;9.00;8.10;;;21.30;99.90;;;21.80;69.59;95348.97;5059469;28;21157;-54
2022/07/03 02:35:13;;;;;;;10.43;9.40;;;21.30;99.90;;;21.80;69.33;95355.16;5062868;28;20481;-54
2022/07/03 02:37:46;;;;;;;10.93;9.83;;;21.30;99.90;;;21.79;69.11;95353.50;5055314;28;20710;-53
2022/07/03 02:40:22;;;;;;;13.43;9.57;;;21.30;99.90;;;21.79;69.52;95350.81;5060912;28;20486;-53
2022/07/03 02:42:56;;;;;;;9.20;8.30;;;21.30;99.90;;;21.78;69.64;95346.50;5061643;28;20454;-53
2022/07/03 02:45:26;;;;;;;10.63;9.53;;;21.30;99.90;;;21.77;69.49;95346.69;5055465;28;20472;-55
2022/07/03 02:48:00;;;;;;;10.80;9.00;;;21.30;99.90;;;21.74;69.78;95347.91;5056043;28;20454;-52
2022/07/03 02:50:27;;;;;;;10.23;9.23;;;21.30;99.90;;;21.73;69.76;95351.59;5058572;28;20472;-55
2022/07/03 02:53:02;;;;;;;12.00;9.13;;;21.30;99.90;;;21.74;69.76;95355.13;5062284;28;20498;-54
2022/07/03 02:55:41;;;;;;;21.20;9.30;;;21.30;99.90;;;21.74;69.76;95360.50;5060480;28;20485;-55
2022/07/03 02:58:33;;;;;;;10.40;9.00;;;21.30;99.90;;;21.74;69.98;95365.84;5062542;28;20463;-55
2022/07/03 03:01:10;;;;;;;11.80;10.37;;;21.30;99.90;;;21.73;69.82;95370.34;5062016;28;21047;-54
2022/07/03 03:03:39;;;;;;;12.90;9.50;;;21.30;99.90;;;21.72;69.62;95374.06;5058516;28;20964;-56
2022/07/03 03:06:13;;;;;;;11.17;8.40;;;21.20;99.90;;;21.74;69.49;95371.19;5061442;28;20478;-52
2022/07/03 03:08:44;;;;;;;11.83;9.70;;;21.20;99.90;;;21.73;69.76;95372.22;5059539;28;20443;-54
2022/07/03 03:11:25;;;;;;;11.73;10.57;;;21.20;99.90;;;21.71;70.18;95372.41;5060574;28;20463;-54
2022/07/03 03:13:56;;;;;;;11.60;10.40;;;21.20;99.90;;;21.69;69.81;95381.66;5061327;28;20543;-54
2022/07/03 03:16:24;;;;;;;18.30;10.33;;;21.20;99.90;;;21.68;69.65;95378.16;5058455;28;20920;-54
2022/07/03 03:18:52;;;;;;;12.17;9.80;;;21.20;99.90;;;21.69;69.69;95382.50;5062054;28;20447;-52
2022/07/03 03:21:20;;;;;;;12.13;10.73;;;21.20;99.90;;;21.70;69.92;95384.13;5058373;28;20468;-55
2022/07/03 03:23:49;;;;;;;11.00;9.93;;;21.20;99.90;;;21.71;69.92;95384.97;5060842;28;20526;-54
2022/07/03 03:26:18;;;;;;;11.20;9.97;;;21.20;99.90;;;21.71;69.42;95387.66;5057458;28;20476;-56
2022/07/03 03:28:45;;;;;;;13.50;11.17;;;21.20;99.90;;;21.72;69.59;95386.59;5061158;28;20831;-55
2022/07/03 03:31:13;;;;;;;11.10;9.77;;;21.20;99.90;;;21.72;69.51;95379.44;5058222;28;20476;-54
2022/07/03 03:33:44;;;;;;;12.30;9.47;;;21.20;99.90;;;21.74;69.51;95384.59;5061756;28;20511;-55
2022/07/03 03:36:12;;;;;;;14.13;10.17;;;21.20;99.90;;;21.74;69.44;95381.91;5057938;28;20482;-54
2022/07/03 03:38:39;;;;;;;11.63;10.43;;;21.20;99.90;;;21.76;69.45;95380.66;5060938;28;20451;-58
2022/07/03 03:41:07;;;;;;;14.60;10.00;;;21.30;99.90;;;21.81;69.21;95377.41;5057911;28;20532;-56
2022/07/03 03:43:34;;;;;;;15.00;10.90;;;21.30;99.90;;;21.82;69.50;95376.38;5061023;28;20451;-53
2022/07/03 03:46:01;;;;;;;16.30;10.60;;;21.30;99.90;;;21.83;69.70;95384.22;5057391;28;20466;-52
2022/07/03 03:48:29;;;;;;;12.20;10.50;;;21.30;99.90;;;21.86;68.93;95385.69;5055583;28;20462;-54
2022/07/03 03:50:58;;;;;;;17.40;10.20;;;21.30;99.90;;;21.89;68.72;95389.81;5061013;28;20470;-52
2022/07/03 03:53:26;;;;;;;16.13;10.27;;;21.30;99.90;;;21.91;68.91;95393.13;5058135;28;21127;-54
2022/07/03 03:56:00;;;;;;;14.13;10.30;;;21.40;99.90;;;21.92;69.04;95384.91;5061943;28;20911;-54
2022/07/03 03:58:28;;;;;;;13.40;10.30;;;21.40;99.90;;;21.93;68.82;95381.19;5058794;28;21033;-53
2022/07/03 04:00:57;;;;;;;10.13;9.27;;;21.40;99.90;;;21.96;69.03;95394.16;5060225;28;20549;-56
2022/07/03 04:03:25;;;;;;;11.07;9.50;;;21.50;99.90;;;21.98;68.82;95392.13;5056296;28;20465;-56
2022/07/03 04:05:52;;;;;;;19.27;9.43;;;21.50;99.90;;;22.01;68.74;95390.91;5061054;28;20474;-56
2022/07/03 04:08:21;;;;;;;15.73;9.83;;;21.50;99.90;;;22.05;68.38;95386.81;5058630;28;20451;-56
2022/07/03 04:10:48;;;;;;;12.10;9.87;;;21.50;99.90;;;22.09;68.61;95384.53;5060659;28;20837;-54
2022/07/03 04:13:16;;;;;;;11.80;10.67;;;21.60;99.90;;;22.10;68.39;95381.66;5058594;28;20907;-54
2022/07/03 04:15:43;;;;;;;9.87;8.87;;;21.60;99.90;;;22.13;68.31;95375.91;5065540;28;20486;-55
2022/07/03 04:18:10;;;;;;;14.20;9.60;;;21.60;99.90;;;22.16;67.94;95380.88;5061782;28;20932;-54
2022/07/03 04:20:38;;;;;;;13.50;9.60;;;21.60;99.90;;;22.19;68.08;95380.47;5064783;28;20470;-54
2022/07/03 04:23:05;;;;;;;10.80;9.70;;;21.70;99.90;;;22.24;68.57;95385.22;5061642;28;20448;-54
2022/07/03 04:25:34;;;;;;;10.00;8.83;;;21.70;99.90;;;22.30;67.90;95381.78;5062634;28;20477;-54
2022/07/03 04:28:01;;;;;;;16.13;10.10;;;21.80;99.90;;;22.36;67.78;95380.16;5062533;28;20458;-54
2022/07/03 04:30:28;;;;;;;12.30;9.23;;;21.80;99.90;;;22.43;67.36;95382.88;5064499;28;20462;-54
2022/07/03 04:32:56;;;;;;;9.70;8.70;;;21.90;99.90;;;22.48;67.22;95375.03;5060646;28;20486;-53
2022/07/03 04:35:23;;;;;;;10.17;8.63;;;21.90;99.90;;;22.54;67.28;95383.13;5057415;28;20475;-55
2022/07/03 04:37:51;;;;;;;22.63;8.90;;;22.00;99.90;;;22.60;66.78;95380.66;5061277;28;20794;-54
2022/07/03 04:40:18;;;;;;;9.80;8.80;;;22.10;99.90;;;22.66;66.38;95379.84;5063379;28;20483;-55
2022/07/03 04:42:47;;;;;;;13.43;9.33;;;22.10;99.90;;;22.71;66.72;95385.41;5062959;28;20459;-55
2022/07/03 04:45:14;;;;;;;15.00;9.40;;;22.20;99.90;;;22.78;66.67;95388.94;5061990;28;20474;-54
2022/07/03 04:47:41;;;;;;;13.80;9.07;;;22.30;99.90;;;22.85;66.56;95395.16;5057941;28;20475;-55
2022/07/03 04:50:09;;;;;;;26.57;10.57;;;22.30;99.90;;;22.89;66.46;95384.84;5056999;28;20990;-53
2022/07/03 04:52:36;;;;;;;11.20;9.20;;;22.40;99.90;;;22.99;65.59;95389.78;5061505;28;20494;-54
2022/07/03 04:55:04;;;;;;;16.60;9.60;;;22.50;99.90;;;23.04;65.60;95390.03;5063507;28;20505;-55
2022/07/03 04:57:32;;;;;;;9.60;8.70;;;22.50;99.90;;;23.11;65.37;95388.19;5061915;28;20443;-53
2022/07/03 05:00:00;;;;;;;12.43;10.37;;;22.60;99.90;;;23.18;65.89;95378.28;5061642;28;20475;-56
2022/07/03 05:02:28;;;;;;;12.47;11.20;;;22.60;99.90;;;23.25;65.74;95383.66;5062551;28;20517;-55
2022/07/03 05:04:55;;;;;;;17.90;11.47;;;22.70;99.90;;;23.31;65.87;95384.69;5058071;28;20451;-53
2022/07/03 05:07:22;;;;;;;24.03;11.07;;;22.70;99.90;;;23.36;65.02;95390.25;5063745;28;20455;-55
2022/07/03 05:09:49;;;;;;;12.70;9.03;;;22.80;99.90;;;23.41;65.00;95387.78;5062516;28;20456;-56
2022/07/03 05:12:17;;;;;;;12.37;10.33;;;22.90;99.90;;;23.46;65.38;95390.69;5063172;28;20455;-52
2022/07/03 05:14:45;;;;;;;11.13;9.93;;;22.90;99.90;;;23.51;64.49;95388.19;5060747;28;20571;-54
2022/07/03 05:17:13;;;;;;;13.10;10.03;;;23.00;99.90;;;23.56;65.21;95385.72;5064649;28;20447;-55
2022/07/03 05:19:41;;;;;;;14.17;11.07;;;23.00;99.90;;;23.66;65.20;95385.28;5055251;28;20829;-56
2022/07/03 05:22:08;;;;;;;11.27;9.97;;;23.10;99.90;;;23.76;65.04;95388.34;5061620;28;20584;-56
2022/07/03 05:24:35;;;;;;;17.50;11.13;;;23.20;99.90;;;23.90;64.58;95391.88;5059326;28;20455;-54
2022/07/03 05:27:03;;;;;;;12.40;10.40;;;23.30;99.70;;;24.02;63.46;95381.31;5064184;28;21084;-56
2022/07/03 05:29:30;;;;;;;11.07;9.13;;;23.40;99.50;;;24.16;63.13;95384.78;5060500;28;20807;-56
2022/07/03 05:31:57;;;;;;;13.70;10.13;;;23.50;99.20;;;24.31;63.61;95382.66;5062073;28;20478;-53
2022/07/03 05:34:26;;;;;;;14.00;10.17;;;23.70;99.10;;;24.48;63.10;95387.56;5059529;28;20491;-55
2022/07/03 05:36:53;;;;;;;11.70;9.30;;;23.80;98.70;;;24.64;62.44;95375.50;5063277;28;20470;-54
2022/07/03 05:39:32;;;;;;;17.27;10.53;;;24.00;98.50;;;24.81;61.82;95387.38;5060378;28;20826;-55
2022/07/03 05:42:00;;;;;;;13.77;10.10;;;24.10;98.10;;;25.02;61.30;95391.63;5059502;28;20489;-55
2022/07/03 05:44:27;;;;;;;9.40;8.30;;;24.30;97.80;;;25.20;61.23;95384.66;5060586;28;20840;-55
2022/07/03 05:46:54;;;;;;;12.60;9.30;;;24.50;97.60;;;25.38;60.26;95392.81;5058651;28;20471;-54
2022/07/03 05:49:22;;;;;;;9.97;9.07;;;24.70;97.30;;;25.57;59.86;95399.06;5061712;28;20462;-54
2022/07/03 05:51:50;;;;;;;14.50;10.17;;;24.90;97.20;;;25.76;60.40;95393.72;5060894;28;20467;-54
2022/07/03 05:54:18;;;;;;;11.17;9.17;;;25.10;97.00;;;25.95;59.43;95394.59;5061245;28;20486;-53
2022/07/03 05:56:45;;;;;;;14.00;9.33;;;25.20;96.60;;;26.10;59.20;95395.09;5062237;28;20479;-54
2022/07/03 05:59:12;;;;;;;9.63;8.57;;;25.40;96.40;;;26.28;58.83;95388.84;5058800;28;20458;-55
2022/07/03 06:01:40;;;;;;;16.63;8.70;;;25.60;96.10;;;26.46;58.47;95392.56;5059351;28;20474;-56
2022/07/03 06:04:07;;;;;;;10.23;8.57;;;25.70;95.80;;;26.64;58.04;95394.44;5062705;28;20802;-55
2022/07/03 06:06:34;;;;;;;15.50;10.13;;;25.90;95.30;;;26.82;57.70;95380.09;5061694;28;20474;-54
2022/07/03 06:09:03;;;;;;;15.93;9.43;;;26.10;95.00;;;26.98;57.20;95389.41;5063579;28;21052;-55
2022/07/03 06:11:30;;;;;;;10.47;9.47;;;26.30;94.60;;;27.17;56.87;95390.16;5059921;28;20471;-55
2022/07/03 06:13:58;;;;;;;8.40;7.63;;;26.40;94.10;;;27.34;56.26;95385.78;5060504;28;20893;-54
2022/07/03 06:16:25;;;;;;;9.60;8.70;;;26.60;93.90;;;27.53;55.73;95391.91;5060458;28;21068;-54
2022/07/03 06:18:52;;;;;;;15.70;9.53;;;26.80;93.30;;;27.71;55.00;95393.66;5059125;28;20438;-56
2022/07/03 06:21:20;;;;;;;11.90;8.90;;;27.00;92.90;;;27.91;55.11;95397.91;5059672;28;20479;-56
2022/07/03 06:23:47;;;;;;;12.40;9.40;;;27.10;92.50;;;28.06;54.42;95400.19;5062648;28;20474;-55
2022/07/03 06:26:16;;;;;;;10.50;9.17;;;27.30;92.20;;;28.17;53.47;95402.03;5059888;28;20583;-54
2022/07/03 06:28:43;;;;;;;9.73;8.83;;;27.40;91.40;;;28.25;53.84;95396.25;5062582;28;20457;-55
2022/07/03 06:31:10;;;;;;;10.10;7.83;;;27.50;91.10;;;28.34;53.63;95393.19;5059483;28;20470;-55
2022/07/03 06:33:38;;;;;;;8.53;7.70;;;27.60;91.00;;;28.48;52.93;95391.84;5061005;28;20493;-55
2022/07/03 06:36:05;;;;;;;11.43;9.00;;;27.70;90.60;;;28.61;52.89;95401.59;5059902;28;20476;-55
2022/07/03 06:38:33;;;;;;;13.10;8.50;;;27.90;90.40;;;28.75;52.45;95396.72;5062839;28;20647;-54
2022/07/03 06:41:00;;;;;;;10.10;9.20;;;28.00;89.70;;;28.87;51.36;95397.50;5059247;28;20474;-55
2022/07/03 06:43:29;;;;;;;11.53;8.73;;;28.10;88.70;;;28.94;51.77;95398.19;5058245;28;20446;-56
2022/07/03 06:45:56;;;;;;;9.20;8.17;;;28.20;87.70;;;29.06;51.15;95391.88;5056550;28;20474;-55
2022/07/03 06:48:23;;;;;;;14.47;8.87;;;28.30;87.40;;;29.21;50.81;95394.91;5056743;28;20454;-55
2022/07/03 06:50:51;;;;;;;12.50;8.47;;;28.50;87.00;;;29.37;50.30;95389.75;5059429;28;20844;-53
2022/07/03 06:53:18;;;;;;;16.13;10.30;;;28.60;86.10;;;29.46;50.09;95394.50;5059528;28;20890;-54
2022/07/03 06:55:45;;;;;;;9.13;8.27;;;28.70;84.70;;;29.52;50.19;95394.59;5063818;28;20494;-55
2022/07/03 06:58:13;;;;;;;14.13;8.47;;;28.80;84.30;;;29.61;50.04;95385.78;5060022;28;20443;-56
2022/07/03 07:00:42;;;;;;;8.83;8.13;;;28.90;83.50;;;29.78;49.36;95383.06;5058093;28;20481;-56
2022/07/03 07:03:10;;;;;;;9.47;8.27;;;29.00;83.00;;;29.94;49.88;95381.44;5059745;28;20581;-53
2022/07/03 07:05:37;;;;;;;14.70;8.43;;;29.10;82.70;;;30.11;48.66;95392.25;5060435;28;20473;-56
2022/07/03 07:08:05;;;;;;;14.90;7.80;;;29.30;81.60;;;30.29;49.29;95384.91;5059599;28;21017;-56
2022/07/03 07:10:32;;;;;;;10.37;9.37;;;29.50;81.00;;;30.48;48.59;95380.81;5061763;28;20467;-56
2022/07/03 07:12:59;;;;;;;9.80;8.80;;;29.70;80.20;;;30.66;47.59;95376.97;5059004;28;20459;-56
2022/07/03 07:15:27;;;;;;;10.80;9.80;;;29.80;78.90;;;30.64;47.46;95372.84;5062945;28;20223;-58
2022/07/03 07:17:55;;;;;;;14.27;9.60;;;29.90;77.00;;;30.50;47.46;95375.13;5055075;28;20239;-55
2022/07/03 07:20:23;;;;;;;10.20;9.20;;;29.90;76.80;;;30.42;47.47;95373.69;5062028;28;20741;-58
2022/07/03 07:22:50;;;;;;;13.73;10.40;;;29.80;76.00;;;30.43;48.07;95360.91;5059709;28;20246;-55
2022/07/03 07:25:18;;;;;;;17.33;8.87;;;29.70;76.10;;;30.51;47.33;95365.91;5060902;28;20477;-56
2022/07/03 07:27:45;;;;;;;9.40;8.33;;;29.80;76.00;;;30.66;47.55;95367.97;5058285;28;20681;-57
2022/07/03 07:30:12;;;;;;;11.23;9.37;;;29.90;76.00;;;30.83;47.39;95362.44;5060255;28;20239;-56
2022/07/03 07:32:40;;;;;;;17.73;9.40;;;30.00;75.80;;;30.97;47.36;95366.44;5057335;28;20208;-53
2022/07/03 07:35:09;;;;;;;8.87;7.97;;;30.10;75.00;;;31.17;46.76;95365.00;5060778;28;20228;-55
2022/07/03 07:37:37;;;;;;;10.50;8.27;;;30.30;74.30;;;31.36;46.70;95376.31;5058574;28;20259;-55
2022/07/03 07:40:06;;;;;;;8.90;8.03;;;30.50;73.40;;;31.50;46.56;95373.97;5061798;28;20240;-54
2022/07/03 07:42:33;;;;;;;12.50;7.80;;;30.70;73.10;;;31.70;45.78;95370.59;5058027;28;20249;-53
2022/07/03 07:45:00;;;;;;;8.47;7.67;;;30.90;72.20;;;31.89;45.62;95371.03;5060218;28;20615;-57
2022/07/03 07:47:27;;;;;;;14.27;8.33;;;31.00;71.50;;;32.03;45.43;95366.75;5053714;28;20196;-55
2022/07/03 07:49:55;;;;;;;18.43;8.70;;;31.20;70.70;;;32.21;45.25;95362.81;5057554;28;20207;-55
2022/07/03 07:52:24;;;;;;;19.40;10.13;;;31.40;70.30;;;32.32;44.51;95369.91;5059304;28;20234;-57
2022/07/03 07:54:51;;;;;;;16.20;11.65;;;31.50;68.70;;;32.39;44.30;95363.41;5062292;28;20231;-54
2022/07/03 07:57:19;;;;;;;14.37;10.30;;;31.60;68.30;;;32.40;44.13;95360.44;5061194;28;20222;-54
2022/07/03 07:59:46;;;;;;;13.38;9.98;;;31.60;67.10;;;32.33;43.62;95357.13;5060827;28;20587;-54
2022/07/03 08:07:44;;;;;;;17.40;9.50;;;31.50;65.90;;;32.35;43.63;95353.06;5060856;28;20199;-55
2022/07/03 08:10:11;;;;;;;11.70;9.30;;;31.60;65.80;;;32.41;43.57;95353.91;5059899;28;20277;-56
2022/07/03 08:12:39;;;;;;;11.02;8.88;;;31.60;65.10;;;32.47;43.10;95350.13;5059313;28;20203;-55
2022/07/03 08:15:07;;;;;;;8.88;8.02;;;31.70;64.60;;;32.48;42.82;95349.00;5058730;28;20227;-54
2022/07/03 08:17:34;;;;;;;14.53;8.77;;;31.80;63.80;;;32.47;42.85;95344.66;5055963;28;20620;-55
2022/07/03 08:20:02;;;;;;;19.70;8.52;;;31.80;63.60;;;32.48;42.67;95340.84;5057915;28;20205;-54
2022/07/03 08:22:29;;;;;;;9.05;7.70;;;31.80;62.90;;;32.52;42.41;95344.69;5062373;28;20213;-54
2022/07/03 08:24:58;;;;;;;12.32;7.30;;;31.80;62.50;;;32.62;42.55;95346.59;5057483;28;20215;-55
2022/07/03 08:27:25;;;;;;;9.32;8.52;;;31.80;62.70;;;32.88;42.67;95344.00;5060257;28;20210;-53
2022/07/03 08:29:52;;;;;;;8.57;7.88;;;32.00;62.90;;;33.21;41.71;95347.31;5059022;28;20204;-54
2022/07/03 08:32:20;;;;;;;8.95;8.05;;;32.30;61.90;;;33.54;41.44;95348.69;5057698;28;20332;-55
2022/07/03 08:34:47;;;;;;;10.88;7.68;;;32.60;61.50;;;33.87;41.23;95349.22;5059621;28;20293;-56
2022/07/03 08:37:15;;;;;;;15.63;8.27;;;33.00;60.80;;;33.98;40.75;95352.75;5057950;28;20197;-53
2022/07/03 08:39:42;;;;;;;8.68;7.40;;;33.20;59.00;;;33.93;40.57;95350.84;5059241;28;20213;-56
2022/07/03 08:42:12;;;;;;;12.57;8.02;;;33.20;58.40;;;33.98;39.56;95343.75;5054969;28;20201;-55
2022/07/03 08:44:39;;;;;;;9.27;7.57;;;33.20;58.10;;;33.93;39.67;95341.84;5060976;28;20201;-55
2022/07/03 08:47:07;;;;;;;12.88;8.68;;;33.10;56.90;;;33.84;39.79;95335.31;5054575;28;20489;-57
2022/07/03 08:49:34;;;;;;;9.82;8.65;;;33.10;57.30;;;33.82;39.96;95338.31;5059680;28;20204;-56
2022/07/03 08:52:02;;;;;;;8.93;7.78;;;33.00;57.40;;;33.91;40.36;95341.28;5056919;28;20217;-54
2022/07/03 08:54:29;;;;;;;9.07;8.15;;;33.10;57.70;;;33.99;40.29;95340.75;5060814;28;20226;-56
2022/07/03 08:56:56;;;;;;;12.38;7.38;;;33.10;57.40;;;34.17;39.38;95339.31;5059349;28;20217;-56
2022/07/03 08:59:25;;;;;;;14.52;8.23;;;33.30;56.60;;;34.43;38.97;95344.72;5060729;28;20196;-55
2022/07/03 09:01:53;;;;;;;8.38;7.53;;;33.50;56.40;;;34.66;39.05;95332.31;5059470;28;20220;-53
2022/07/03 09:04:20;;;;;;;17.38;7.00;;;33.80;56.50;;;34.93;38.17;95337.38;5064715;28;20316;-55
2022/07/03 09:06:47;;;;;;;7.55;6.95;;;34.00;55.80;;;35.18;37.60;95344.59;5060638;28;20814;-56
2022/07/03 09:09:14;;;;;;;7.60;6.47;;;34.30;55.80;;;35.28;38.22;95332.78;5065934;28;20210;-57
2022/07/03 09:11:42;;;;;;;6.97;6.35;;;34.50;54.50;;;35.44;37.46;95329.91;5061104;28;20596;-55
2022/07/03 09:14:09;;;;;;;6.90;6.07;;;34.60;53.70;;;35.55;36.25;95339.66;5063210;28;20259;-55
2022/07/03 09:16:38;;;;;;;13.73;6.13;;;34.70;51.70;;;35.64;35.95;95327.00;5061761;28;20698;-55
2022/07/03 09:19:05;;;;;;;7.60;6.13;;;34.80;52.10;;;35.71;36.42;95326.66;5063387;28;20200;-56
2022/07/03 09:21:39;;;;;;;7.20;6.22;;;34.90;51.10;;;35.65;35.21;95325.91;5060870;28;20220;-55
2022/07/03 09:24:08;;;;;;;7.00;6.25;;;34.90;51.10;;;35.59;36.22;95326.22;5060633;28;20200;-55
2022/07/03 09:26:36;;;;;;;17.85;6.55;;;34.90;51.20;;;35.49;35.22;95322.50;5061556;28;20228;-55
2022/07/03 09:29:04;;;;;;;6.43;5.82;;;34.80;50.60;;;35.41;36.24;95320.34;5061953;28;20201;-55
2022/07/03 09:31:32;;;;;;;6.65;6.05;;;34.70;50.90;;;35.46;35.63;95317.59;5060733;28;20247;-55
2022/07/03 09:34:01;;;;;;;8.93;6.07;;;34.70;51.00;;;35.54;35.31;95322.44;5060276;28;20606;-55
2022/07/03 09:36:43;;;;;;;5.80;5.45;;;34.80;50.70;;;35.51;34.19;95314.81;5061253;28;20227;-55
2022/07/03 09:39:30;;;;;;;9.82;5.70;;;34.70;49.30;;;35.60;34.90;95314.97;5060127;28;20740;-55
2022/07/03 09:41:59;;;;;;;15.00;5.22;;;34.80;49.90;;;35.76;35.36;95315.69;5057108;28;20224;-55
2022/07/03 09:44:37;;;;;;;8.57;5.63;;;34.90;50.10;;;35.91;34.30;95303.75;5062492;28;20204;-55
2022/07/03 09:47:15;;;;;;;5.35;4.95;;;35.10;49.20;;;36.10;33.30;95311.22;5054119;28;20256;-56
2022/07/03 09:49:49;;;;;;;8.50;6.75;;;35.30;48.40;;;36.16;34.58;95307.31;5062304;28;20204;-57
2022/07/03 09:52:39;;;;;;;6.38;5.97;;;35.40;48.50;;;36.16;34.35;95312.78;5060706;28;20193;-55
2022/07/03 09:55:20;;;;;;;6.47;4.68;;;35.40;47.90;;;36.01;32.61;95300.09;5056862;28;20558;-56
2022/07/03 09:57:59;;;;;;;9.50;5.40;;;35.30;46.50;;;35.79;32.70;95309.66;5062249;28;20211;-54
2022/07/03 10:00:27;;;;;;;5.97;4.85;;;35.10;46.10;;;35.63;31.99;95297.97;5057740;28;20225;-55
2022/07/03 10:02:59;;;;;;;5.75;5.20;;;35.00;45.50;;;35.57;32.60;95292.84;5056008;28;20219;-55
2022/07/03 10:05:30;;;;;;;5.65;5.00;;;34.90;46.20;;;35.50;32.64;95290.47;5062536;28;20632;-56
2022/07/03 10:07:59;;;;;;;7.07;5.13;;;34.80;46.40;;;35.32;32.45;95292.81;5055116;28;20547;-56
2022/07/03 10:10:28;;;;;;;6.20;5.05;;;34.70;46.30;;;35.18;33.95;95286.31;5060978;28;20224;-55
2022/07/03 10:12:55;;;;;;;6.88;5.55;;;34.60;47.10;;;35.17;33.16;95288.25;5062398;28;20676;-57
2022/07/03 10:15:23;;;;;;;5.50;4.97;;;34.50;46.80;;;35.14;33.64;95297.03;5060602;28;20266;-58
2022/07/03 10:17:52;;;;;;;5.90;4.63;;;34.40;46.20;;;35.04;32.90;95290.81;5055265;28;20204;-56
2022/07/03 10:20:26;;;;;;;6.70;4.40;;;34.30;45.90;;;34.89;33.29;95281.66;5061760;28;20239;-54
2022/07/03 10:22:55;;;;;;;7.13;4.72;;;34.20;45.30;;;34.81;33.27;95280.34;5059836;28;20234;-56
2022/07/03 10:25:22;;;;;;;6.43;5.82;;;34.20;45.50;;;34.78;32.31;95280.06;5063017;28;20220;-55
2022/07/03 10:27:50;;;;;;;6.00;5.55;;;34.10;45.90;;;34.63;33.22;95270.03;5059178;28;20210;-56